createdAt,value
2022-08-04T00:02:10.408Z,100.00
2022-08-04T00:04:44.195Z,100.00
2022-08-04T00:07:17.858Z,100.00
2022-08-04T00:09:51.241Z,100.00
2022-08-04T00:12:20.981Z,100.00
2022-08-04T00:14:59.787Z,100.00
2022-08-04T00:17:33.312Z,100.00
2022-08-04T00:20:03.288Z,100.00
2022-08-04T00:22:33.567Z,100.00
2022-08-04T00:25:04.566Z,100.00
2022-08-04T00:27:32.973Z,100.00
2022-08-04T00:30:05.405Z,100.00
2022-08-04T00:32:34.837Z,100.00
2022-08-04T00:35:03.942Z,100.00
2022-08-04T00:37:32.837Z,100.00
2022-08-04T00:40:04.127Z,100.00
2022-08-04T00:42:58.189Z,100.00
2022-08-04T00:46:15.903Z,100.00
2022-08-04T00:48:55.372Z,100.00
2022-08-04T00:51:34.804Z,100.00
2022-08-04T00:54:07.830Z,100.00
2022-08-04T00:57:10.267Z,100.00
2022-08-04T01:00:06.620Z,100.00
2022-08-04T01:02:39.443Z,100.00
2022-08-04T01:05:08.497Z,100.00
2022-08-04T01:08:16.211Z,100.00
2022-08-04T01:10:59.668Z,100.00
2022-08-04T01:13:50.737Z,100.00
2022-08-04T01:16:19.570Z,100.00
2022-08-04T01:18:54.039Z,100.00
2022-08-04T01:22:09.926Z,100.00
2022-08-04T01:25:02.153Z,100.00
2022-08-04T01:27:47.688Z,100.00
2022-08-04T01:30:17.557Z,100.00
2022-08-04T01:32:50.305Z,100.00
2022-08-04T01:35:47.302Z,100.00
2022-08-04T01:38:21.463Z,100.00
2022-08-04T01:40:54.065Z,100.00
2022-08-04T01:43:22.708Z,100.00
2022-08-04T01:45:54.207Z,100.00
2022-08-04T01:48:26.262Z,100.00
2022-08-04T01:50:54.713Z,100.00
2022-08-04T01:53:22.707Z,100.00
2022-08-04T01:55:54.696Z,100.00
2022-08-04T01:58:25.241Z,100.00
2022-08-04T02:01:05.010Z,100.00
2022-08-04T02:04:18.213Z,100.00
2022-08-04T02:06:33.229Z,100.00
2022-08-04T02:09:21.057Z,100.00
2022-08-04T02:12:02.760Z,100.00
2022-08-04T02:14:41.700Z,100.00
2022-08-04T02:17:14.306Z,100.00
2022-08-04T02:20:07.472Z,100.00
2022-08-04T02:22:42.866Z,100.00
2022-08-04T02:25:12.614Z,100.00
2022-08-04T02:28:00.024Z,100.00
2022-08-04T02:30:33.216Z,100.00
2022-08-04T02:33:05.506Z,100.00
2022-08-04T02:35:37.660Z,100.00
2022-08-04T02:38:13.994Z,100.00
2022-08-04T02:40:43.345Z,100.00
2022-08-04T02:43:11.446Z,100.00
2022-08-04T02:46:43.495Z,100.00
2022-08-04T02:49:12.718Z,100.00
2022-08-04T02:51:43.961Z,100.00
2022-08-04T02:54:12.930Z,100.00
2022-08-04T02:56:42.466Z,100.00
2022-08-04T02:59:13.029Z,100.00
2022-08-04T03:01:56.879Z,100.00
2022-08-04T03:04:46.920Z,100.00
2022-08-04T03:07:41.477Z,100.00
2022-08-04T03:10:31.944Z,100.00
2022-08-04T03:13:38.068Z,100.00
2022-08-04T03:16:38.684Z,100.00
2022-08-04T03:19:59.131Z,100.00
2022-08-04T03:23:12.510Z,100.00
2022-08-04T03:26:20.993Z,100.00
2022-08-04T03:29:10.511Z,100.00
2022-08-04T03:32:03.182Z,100.00
2022-08-04T03:34:43.003Z,100.00
2022-08-04T03:37:27.197Z,100.00
2022-08-04T03:40:30.120Z,100.00
2022-08-04T03:43:59.212Z,100.00
2022-08-04T03:46:45.236Z,100.00
2022-08-04T03:49:42.084Z,100.00
2022-08-04T03:52:32.000Z,100.00
2022-08-04T03:55:18.222Z,100.00
2022-08-04T03:57:57.045Z,100.00
2022-08-04T04:00:28.826Z,100.00
2022-08-04T04:03:29.279Z,100.00
2022-08-04T04:06:38.580Z,100.00
2022-08-04T04:09:52.957Z,100.00
2022-08-04T04:13:13.451Z,100.00
2022-08-04T04:16:15.578Z,100.00
2022-08-04T04:19:24.715Z,100.00
2022-08-04T04:22:05.723Z,100.00
2022-08-04T04:24:53.964Z,100.00
2022-08-04T04:27:34.222Z,100.00
2022-08-04T04:30:07.691Z,100.00
2022-08-04T04:33:04.982Z,100.00
2022-08-04T04:35:40.154Z,100.00
2022-08-04T04:38:32.252Z,100.00
2022-08-04T04:41:06.902Z,100.00
2022-08-04T04:44:38.830Z,100.00
2022-08-04T04:51:01.487Z,100.00
2022-08-04T04:53:36.892Z,100.00
2022-08-04T04:56:09.939Z,100.00
2022-08-04T04:58:39.425Z,100.00
2022-08-04T05:01:21.721Z,100.00
2022-08-04T05:04:57.008Z,100.00
2022-08-04T05:07:53.130Z,100.00
2022-08-04T05:10:32.254Z,100.00
2022-08-04T05:14:38.406Z,100.00
2022-08-04T05:16:02.618Z,100.00
2022-08-04T05:18:32.461Z,100.00
2022-08-04T05:21:11.148Z,100.00
2022-08-04T05:23:45.828Z,100.00
2022-08-04T05:26:17.259Z,99.46
2022-08-04T05:28:50.598Z,100.00
2022-08-04T05:31:21.648Z,98.44
2022-08-04T05:33:52.199Z,97.93
2022-08-04T05:36:39.771Z,93.11
2022-08-04T05:39:14.330Z,96.59
2022-08-04T05:41:45.756Z,91.97
2022-08-04T05:45:20.165Z,89.37
2022-08-04T05:47:48.273Z,88.69
2022-08-04T05:50:16.951Z,88.93
2022-08-04T05:52:45.297Z,87.59
2022-08-04T05:55:48.849Z,86.73
2022-08-04T05:58:06.215Z,87.73
2022-08-04T06:00:41.137Z,86.69
2022-08-04T06:03:10.944Z,84.56
2022-08-04T06:05:43.582Z,85.20
2022-08-04T06:08:13.446Z,83.79
2022-08-04T06:10:47.809Z,87.86
2022-08-04T06:13:48.317Z,85.65
2022-08-04T06:16:07.827Z,86.57
2022-08-04T06:19:59.643Z,85.81
2022-08-04T06:21:29.473Z,79.75
2022-08-04T06:24:04.312Z,80.75
2022-08-04T06:26:34.505Z,78.03
2022-08-04T06:29:02.375Z,76.81
2022-08-04T06:32:27.591Z,76.10
2022-08-04T06:34:32.064Z,74.66
2022-08-04T06:37:00.109Z,75.21
2022-08-04T06:39:29.210Z,75.72
2022-08-04T06:42:22.219Z,74.74
2022-08-04T06:44:47.749Z,74.81
2022-08-04T06:47:19.285Z,75.23
2022-08-04T06:51:26.908Z,74.19
2022-08-04T06:52:35.262Z,73.10
2022-08-04T06:55:03.064Z,73.64
2022-08-04T06:57:32.998Z,75.14
2022-08-04T07:00:04.319Z,74.28
2022-08-04T07:02:34.566Z,73.28
2022-08-04T07:05:07.272Z,72.55
2022-08-04T07:07:36.874Z,72.94
2022-08-04T07:10:22.363Z,72.92
2022-08-04T07:12:53.074Z,73.23
2022-08-04T07:15:22.182Z,73.63
2022-08-04T07:17:52.192Z,73.02
2022-08-04T07:20:34.034Z,72.67
2022-08-04T07:23:04.821Z,72.15
2022-08-04T07:25:59.866Z,72.17
2022-08-04T07:28:22.901Z,70.64
2022-08-04T07:30:50.949Z,69.38
2022-08-04T07:33:19.476Z,68.72
2022-08-04T07:36:05.297Z,70.41
2022-08-04T07:38:37.892Z,66.93
2022-08-04T07:41:37.271Z,67.18
2022-08-04T07:44:07.288Z,66.16
2022-08-04T07:46:36.330Z,64.99
2022-08-04T07:49:04.823Z,64.88
2022-08-04T07:51:35.409Z,63.93
2022-08-04T07:54:05.575Z,63.40
2022-08-04T07:56:35.806Z,62.59
2022-08-04T07:59:04.860Z,61.14
2022-08-04T08:01:37.826Z,59.93
2022-08-04T08:04:07.630Z,62.40
2022-08-04T08:06:42.724Z,61.50
2022-08-04T08:09:14.898Z,59.99
2022-08-04T08:12:38.167Z,60.31
2022-08-04T08:14:33.516Z,58.21
2022-08-04T08:17:05.450Z,60.35
2022-08-04T08:19:34.851Z,60.06
2022-08-04T08:22:03.996Z,60.31
2022-08-04T08:24:33.920Z,61.15
2022-08-04T08:27:04.688Z,59.91
2022-08-04T08:29:34.774Z,60.51
2022-08-04T08:32:08.477Z,62.20
2022-08-04T08:34:37.830Z,59.65
2022-08-04T08:37:13.218Z,60.34
2022-08-04T08:39:44.332Z,59.40
2022-08-04T08:42:24.601Z,59.75
2022-08-04T08:45:21.646Z,61.29
2022-08-04T08:48:12.893Z,59.02
2022-08-04T08:50:54.232Z,60.05
2022-08-04T08:53:32.212Z,58.65
2022-08-04T08:56:15.307Z,59.21
2022-08-04T08:59:03.173Z,59.54
2022-08-04T09:01:45.888Z,58.34
2022-08-04T09:04:38.952Z,58.37
2022-08-04T09:07:25.757Z,58.25
2022-08-04T09:10:02.671Z,55.80
2022-08-04T09:12:37.376Z,57.21
2022-08-04T09:15:07.779Z,55.70
2022-08-04T09:17:38.990Z,55.57
2022-08-04T09:20:13.869Z,56.68
2022-08-04T09:22:51.376Z,57.09
2022-08-04T09:25:25.566Z,55.36
2022-08-04T09:27:55.956Z,55.77
2022-08-04T09:30:29.482Z,53.61
2022-08-04T09:33:04.566Z,53.98
2022-08-04T09:35:44.376Z,54.05
2022-08-04T09:38:18.093Z,53.36
2022-08-04T09:40:55.180Z,53.52
2022-08-04T09:43:58.875Z,55.38
2022-08-04T09:46:26.269Z,54.33
2022-08-04T09:48:59.028Z,53.27
2022-08-04T09:51:57.206Z,55.61
2022-08-04T09:54:33.352Z,54.71
2022-08-04T09:57:07.596Z,57.09
2022-08-04T09:59:42.603Z,53.48
2022-08-04T10:02:12.941Z,55.55
2022-08-04T10:04:41.669Z,53.07
2022-08-04T10:07:37.026Z,52.85
2022-08-04T10:10:16.396Z,49.99
2022-08-04T10:12:54.035Z,54.43
2022-08-04T10:15:30.017Z,50.99
2022-08-04T10:18:26.692Z,50.69
2022-08-04T10:21:10.252Z,51.62
2022-08-04T10:23:55.699Z,50.67
2022-08-04T10:26:34.730Z,50.03
2022-08-04T10:29:07.116Z,51.83
2022-08-04T10:31:39.021Z,51.63
2022-08-04T10:34:14.004Z,52.36
2022-08-04T10:36:47.420Z,51.49
2022-08-04T10:39:42.683Z,52.02
2022-08-04T10:42:17.119Z,51.91
2022-08-04T10:44:57.558Z,51.38
2022-08-04T10:47:33.641Z,49.36
2022-08-04T10:50:02.834Z,49.76
2022-08-04T10:52:35.990Z,49.14
2022-08-04T10:55:10.391Z,48.53
2022-08-04T10:57:41.142Z,48.13
2022-08-04T11:00:12.983Z,47.59
2022-08-04T11:02:45.408Z,48.03
2022-08-04T11:05:20.524Z,47.77
2022-08-04T11:07:51.912Z,48.05
2022-08-04T11:10:25.503Z,47.80
2022-08-04T11:12:58.336Z,47.47
2022-08-04T11:15:30.803Z,46.36
2022-08-04T11:18:01.266Z,46.60
2022-08-04T11:20:36.351Z,48.63
2022-08-04T11:23:07.967Z,47.81
2022-08-04T11:25:49.742Z,47.95
2022-08-04T11:28:25.349Z,47.00
2022-08-04T11:30:55.151Z,46.94
2022-08-04T11:33:34.739Z,45.24
2022-08-04T11:36:10.280Z,44.44
2022-08-04T11:38:52.231Z,44.32
2022-08-04T11:41:31.801Z,45.01
2022-08-04T11:44:04.167Z,43.76
2022-08-04T11:46:38.441Z,43.00
2022-08-04T11:49:09.864Z,43.64
2022-08-04T11:51:39.177Z,42.69
2022-08-04T11:54:07.845Z,43.77
2022-08-04T11:56:37.865Z,44.59
2022-08-04T12:00:10.642Z,43.78
2022-08-04T12:03:03.497Z,40.92
2022-08-04T12:05:37.203Z,41.43
2022-08-04T12:08:19.441Z,41.25
2022-08-04T12:10:52.927Z,40.78
2022-08-04T12:13:35.860Z,40.88
2022-08-04T12:16:07.941Z,41.49
2022-08-04T12:18:40.544Z,42.74
2022-08-04T12:21:13.876Z,42.02
2022-08-04T12:23:45.256Z,43.08
2022-08-04T12:26:17.741Z,42.21
2022-08-04T12:31:39.327Z,43.96
2022-08-04T12:34:10.473Z,42.76
2022-08-04T12:36:44.953Z,42.63
2022-08-04T12:39:16.151Z,42.45
2022-08-04T12:41:52.744Z,44.09
2022-08-04T12:44:36.915Z,44.16
2022-08-04T12:47:36.915Z,46.02
2022-08-04T12:50:00.702Z,48.24
2022-08-04T12:55:19.411Z,50.55
2022-08-04T12:57:49.082Z,50.64
2022-08-04T13:00:30.090Z,51.00
2022-08-04T13:03:02.329Z,51.48
2022-08-04T13:05:31.296Z,51.02
2022-08-04T13:07:59.893Z,52.22
2022-08-04T13:10:30.227Z,54.53
2022-08-04T13:13:00.744Z,55.73
2022-08-04T13:15:31.123Z,56.59
2022-08-04T13:18:02.051Z,57.56
2022-08-04T13:20:32.773Z,57.93
2022-08-04T13:23:05.446Z,58.98
2022-08-04T13:26:45.145Z,59.10
2022-08-04T13:28:23.079Z,60.85
2022-08-04T13:30:57.356Z,62.04
2022-08-04T13:33:31.373Z,62.76
2022-08-04T13:36:00.430Z,63.78
2022-08-04T13:38:29.588Z,63.91
2022-08-04T13:40:58.781Z,65.23
2022-08-04T13:44:15.938Z,64.60
2022-08-04T13:46:28.119Z,64.86
2022-08-04T13:49:23.500Z,65.65
2022-08-04T13:55:27.826Z,64.52
2022-08-04T13:58:03.135Z,64.82
2022-08-04T14:00:49.486Z,65.63
2022-08-04T14:03:28.226Z,64.33
2022-08-04T14:06:14.846Z,63.48
2022-08-04T14:09:02.983Z,66.34
2022-08-04T14:12:06.460Z,64.81
2022-08-04T14:14:28.811Z,69.62
2022-08-04T14:16:59.042Z,64.31
2022-08-04T14:19:48.431Z,63.14
2022-08-04T14:22:30.339Z,64.13
2022-08-04T14:25:00.498Z,62.79
2022-08-04T14:27:30.136Z,57.39
2022-08-04T14:29:58.832Z,57.24
2022-08-04T14:32:29.006Z,53.44
2022-08-04T14:34:59.478Z,51.22
2022-08-04T14:37:36.398Z,50.03
2022-08-04T14:40:30.754Z,52.39
2022-08-04T14:43:01.098Z,51.95
2022-08-04T14:45:31.460Z,53.52
2022-08-04T14:49:03.495Z,55.17
2022-08-04T14:51:37.924Z,54.02
2022-08-04T14:54:09.049Z,51.45
2022-08-04T14:56:48.364Z,52.70
2022-08-04T14:59:17.255Z,49.52
2022-08-04T15:02:00.401Z,48.67
2022-08-04T15:04:31.297Z,52.66
2022-08-04T15:07:04.658Z,49.82
2022-08-04T15:09:33.421Z,45.58
2022-08-04T15:12:01.335Z,48.48
2022-08-04T15:14:36.449Z,48.69
2022-08-04T15:17:11.985Z,46.53
2022-08-04T15:19:41.476Z,45.03
2022-08-04T15:22:25.307Z,47.01
2022-08-04T15:24:56.051Z,49.15
2022-08-04T15:27:26.330Z,52.03
2022-08-04T15:29:59.914Z,53.81
2022-08-04T15:32:29.943Z,53.93
2022-08-04T15:35:03.586Z,55.53
2022-08-04T15:37:40.913Z,57.62
2022-08-04T15:40:12.697Z,58.70
2022-08-04T15:42:47.553Z,61.37
2022-08-04T15:46:33.004Z,62.42
2022-08-04T15:48:30.929Z,64.63
2022-08-04T15:51:04.842Z,64.76
2022-08-04T15:54:27.494Z,65.53
2022-08-04T16:01:15.838Z,66.91
2022-08-04T16:04:00.230Z,66.49
2022-08-04T16:06:50.247Z,67.09
2022-08-04T16:09:45.605Z,67.28
2022-08-04T16:12:54.365Z,67.91
2022-08-04T16:15:39.636Z,68.31
2022-08-04T16:19:08.861Z,68.15
2022-08-04T16:21:48.694Z,66.92
2022-08-04T16:24:21.576Z,67.69
2022-08-04T16:26:57.260Z,67.36
2022-08-04T16:29:40.493Z,65.96
2022-08-04T16:32:16.798Z,65.63
2022-08-04T16:34:55.008Z,65.63
2022-08-04T16:37:26.474Z,66.75
2022-08-04T16:40:27.413Z,65.78
2022-08-04T16:43:03.498Z,65.86
2022-08-04T16:45:48.761Z,66.72
2022-08-04T16:48:18.076Z,67.46
2022-08-04T16:50:52.837Z,66.98
2022-08-04T16:53:53.206Z,68.54
2022-08-04T16:56:14.363Z,67.23
2022-08-04T16:58:52.989Z,61.62
2022-08-04T17:01:33.418Z,63.49
2022-08-04T17:04:06.202Z,62.56
2022-08-04T17:06:39.240Z,63.34
2022-08-04T17:09:11.478Z,64.65
2022-08-04T17:12:40.848Z,66.21
2022-08-04T17:15:22.589Z,60.03
2022-08-04T17:18:04.145Z,59.79
2022-08-04T17:20:59.360Z,63.43
2022-08-04T17:24:12.948Z,66.62
2022-08-04T17:26:22.953Z,65.91
2022-08-04T17:29:09.458Z,67.71
2022-08-04T17:31:41.124Z,68.58
2022-08-04T17:34:16.617Z,69.57
2022-08-04T17:36:48.434Z,70.28
2022-08-04T17:39:21.570Z,69.77
2022-08-04T17:41:56.673Z,69.33
2022-08-04T17:44:36.091Z,69.57
2022-08-04T17:47:18.379Z,70.40
2022-08-04T17:49:53.108Z,71.64
2022-08-04T17:52:39.613Z,70.42
2022-08-04T17:55:13.642Z,71.29
2022-08-04T17:57:52.203Z,71.35
2022-08-04T18:00:20.832Z,73.58
2022-08-04T18:02:55.606Z,74.06
2022-08-04T18:05:50.320Z,75.81
2022-08-04T18:11:05.951Z,76.18
2022-08-04T18:13:42.608Z,75.93
2022-08-04T18:16:22.643Z,77.26
2022-08-04T18:19:11.514Z,76.50
2022-08-04T18:21:46.347Z,78.62
2022-08-04T18:24:34.189Z,77.68
2022-08-04T18:27:17.653Z,77.61
2022-08-04T18:30:15.047Z,78.57
2022-08-04T18:32:34.282Z,80.42
2022-08-04T18:35:08.019Z,78.65
2022-08-04T18:38:06.033Z,79.57
2022-08-04T18:40:53.248Z,83.57
2022-08-04T18:43:28.519Z,83.53
2022-08-04T18:46:14.492Z,81.17
2022-08-04T18:48:45.277Z,81.62
2022-08-04T18:51:24.411Z,84.65
2022-08-04T18:53:55.107Z,83.94
2022-08-04T18:56:29.537Z,83.43
2022-08-04T18:59:03.846Z,85.84
2022-08-04T19:02:12.839Z,84.02
2022-08-04T19:04:33.975Z,84.16
2022-08-04T19:07:28.645Z,84.84
2022-08-04T19:09:57.594Z,83.80
2022-08-04T19:12:28.664Z,84.11
2022-08-04T19:15:08.136Z,89.47
2022-08-04T19:17:53.926Z,88.49
2022-08-04T19:20:27.175Z,89.44
2022-08-04T19:26:03.750Z,91.73
2022-08-04T19:31:34.097Z,93.28
2022-08-04T19:34:07.755Z,91.83
2022-08-04T19:36:35.769Z,93.58
2022-08-04T19:39:11.784Z,96.84
2022-08-04T19:42:05.702Z,94.74
2022-08-04T19:44:30.141Z,95.64
2022-08-04T19:47:00.542Z,93.63
2022-08-04T19:50:04.265Z,91.96
2022-08-04T19:52:33.411Z,95.49
2022-08-04T19:55:10.778Z,95.36
2022-08-04T19:57:46.096Z,94.46
2022-08-04T20:00:17.483Z,95.09
2022-08-04T20:03:01.716Z,94.83
2022-08-04T20:05:52.485Z,96.91
2022-08-04T20:08:21.008Z,96.75
2022-08-04T20:10:52.050Z,98.11
2022-08-04T20:13:20.955Z,99.10
2022-08-04T20:15:57.481Z,96.71
2022-08-04T20:21:19.332Z,93.68
2022-08-04T20:23:52.591Z,93.21
2022-08-04T20:26:21.780Z,91.98
2022-08-04T20:28:51.992Z,89.88
2022-08-04T20:31:22.313Z,86.69
2022-08-04T20:33:55.020Z,88.75
2022-08-04T20:36:23.356Z,89.33
2022-08-04T20:38:54.677Z,90.63
2022-08-04T20:41:24.103Z,91.16
2022-08-04T20:43:52.214Z,91.20
2022-08-04T20:46:29.330Z,93.02
2022-08-04T20:48:59.327Z,92.08
2022-08-04T20:51:32.256Z,92.63
2022-08-04T20:54:03.531Z,93.39
2022-08-04T20:56:50.933Z,92.89
2022-08-04T20:59:21.249Z,93.41
2022-08-04T21:01:53.623Z,93.48
2022-08-04T21:04:45.552Z,93.03
2022-08-04T21:07:17.770Z,92.51
2022-08-04T21:09:50.970Z,92.01
2022-08-04T21:15:14.049Z,91.93
2022-08-04T21:17:58.078Z,92.14
2022-08-04T21:20:34.518Z,91.04
2022-08-04T21:23:05.178Z,90.25
2022-08-04T21:25:42.564Z,91.41
2022-08-04T21:28:20.442Z,89.47
2022-08-04T21:30:54.021Z,90.56
2022-08-04T21:33:43.948Z,91.64
2022-08-04T21:36:14.558Z,90.35
2022-08-04T21:38:51.381Z,91.48
2022-08-04T21:41:24.878Z,90.51
2022-08-04T21:43:58.763Z,87.73
2022-08-04T21:46:27.293Z,89.07
2022-08-04T21:48:58.839Z,89.34
2022-08-04T21:51:57.774Z,89.88
2022-08-04T21:54:17.466Z,87.65
2022-08-04T21:57:49.968Z,88.42
2022-08-04T22:00:21.437Z,87.41
2022-08-04T22:02:53.043Z,85.81
2022-08-04T22:05:21.989Z,87.67
2022-08-04T22:07:51.693Z,85.99
2022-08-04T22:10:32.373Z,85.62
2022-08-04T22:13:07.030Z,84.84
2022-08-04T22:16:05.405Z,85.05
2022-08-04T22:18:27.661Z,82.75
2022-08-04T22:20:56.847Z,80.56
2022-08-04T22:23:26.400Z,81.40
2022-08-04T22:25:56.183Z,81.03
2022-08-04T22:28:28.182Z,82.00
2022-08-04T22:30:58.474Z,81.31
2022-08-04T22:33:54.407Z,83.46
2022-08-04T22:36:16.358Z,84.08
2022-08-04T22:38:49.994Z,82.13
2022-08-04T22:41:33.636Z,83.03
2022-08-04T22:44:03.408Z,81.95
2022-08-04T22:46:36.137Z,82.56
2022-08-04T22:49:04.136Z,82.44
2022-08-04T22:51:32.098Z,82.65
2022-08-04T22:54:01.732Z,81.42
2022-08-04T22:56:37.453Z,82.90
2022-08-04T22:59:09.956Z,84.15
2022-08-04T23:02:00.495Z,82.76
2022-08-04T23:04:27.351Z,82.54
2022-08-04T23:06:55.498Z,82.72
2022-08-04T23:09:49.230Z,85.59
2022-08-04T23:12:27.860Z,82.93
2022-08-04T23:14:57.036Z,81.31
2022-08-04T23:17:28.124Z,81.07
2022-08-04T23:20:57.889Z,80.38
2022-08-04T23:23:26.140Z,78.93
2022-08-04T23:26:07.469Z,78.40
2022-08-04T23:28:35.888Z,81.09
2022-08-04T23:31:03.896Z,80.93
2022-08-04T23:33:50.771Z,85.22
2022-08-04T23:36:30.052Z,88.85
2022-08-04T23:39:00.689Z,96.70
2022-08-04T23:42:30.202Z,100.00
2022-08-04T23:45:00.109Z,100.00
2022-08-04T23:48:15.793Z,100.00
2022-08-04T23:50:18.398Z,100.00
2022-08-04T23:52:46.091Z,100.00
2022-08-04T23:55:19.170Z,100.00
2022-08-04T23:58:05.684Z,100.00
